createdAt,value
2022-10-11T21:12:14.505Z,101885.75
2022-10-11T21:14:42.427Z,101882.25
2022-10-11T21:17:09.744Z,101883.81
2022-10-11T21:19:36.942Z,101890.66
2022-10-11T21:22:04.387Z,101890.41
2022-10-11T21:24:31.588Z,101890.16
2022-10-11T21:27:00.861Z,101894.09
2022-10-11T21:29:28.516Z,101895.34
2022-10-11T21:31:55.797Z,101894.66
2022-10-11T21:34:23.049Z,101899.88
2022-10-11T21:36:50.338Z,101890.66
2022-10-11T21:39:17.773Z,101896.50
2022-10-11T21:41:44.990Z,101891.94
2022-10-11T21:44:12.418Z,101894.97
2022-10-11T21:47:05.398Z,101905.38
2022-10-11T21:49:27.491Z,101902.78
2022-10-11T21:51:54.701Z,101904.28
2022-10-11T21:54:22.034Z,101907.75
2022-10-11T21:56:49.333Z,101903.13
2022-10-11T21:59:16.735Z,101904.03
2022-10-11T22:01:44.095Z,101905.75
2022-10-11T22:04:12.136Z,101911.69
2022-10-11T22:06:39.833Z,101906.25
2022-10-11T22:09:07.676Z,101913.75
2022-10-11T22:11:35.249Z,101921.66
2022-10-11T22:14:02.809Z,101922.03
2022-10-11T22:16:30.090Z,101916.47
2022-10-11T22:18:57.936Z,101921.91
2022-10-11T22:21:25.180Z,101918.63
2022-10-11T22:23:53.357Z,101925.16
2022-10-11T22:26:22.287Z,101907.13
2022-10-11T22:28:49.870Z,101916.56
2022-10-11T22:31:18.333Z,101921.56
2022-10-11T22:36:19.296Z,101916.56
2022-10-11T22:38:47.653Z,101916.03
2022-10-11T22:41:14.948Z,101924.03
2022-10-11T22:43:42.375Z,101918.22
2022-10-11T22:46:09.977Z,101914.91
2022-10-11T22:48:37.443Z,101922.31
2022-10-11T22:51:05.022Z,101917.72
2022-10-11T22:53:32.390Z,101922.13
2022-10-11T22:55:59.724Z,101920.91
2022-10-11T22:58:27.204Z,101913.84
2022-10-11T23:00:54.596Z,101915.81
2022-10-11T23:03:21.820Z,101914.75
2022-10-11T23:05:58.411Z,101915.28
2022-10-11T23:08:26.010Z,101920.56
2022-10-11T23:10:53.632Z,101920.81
2022-10-11T23:13:21.584Z,101919.06
2022-10-11T23:15:49.097Z,101924.28
2022-10-11T23:18:16.889Z,101921.00
2022-10-11T23:20:44.463Z,101910.84
2022-10-11T23:23:11.851Z,101919.72
2022-10-11T23:25:39.145Z,101920.38
2022-10-11T23:28:06.550Z,101914.84
2022-10-11T23:30:33.914Z,101923.66
2022-10-11T23:33:01.199Z,101928.63
2022-10-11T23:35:28.615Z,101923.66
2022-10-11T23:37:57.012Z,101931.03
2022-10-11T23:40:24.257Z,101926.81
2022-10-11T23:42:51.516Z,101931.66
2022-10-11T23:45:18.708Z,101929.47
2022-10-11T23:47:46.068Z,101931.84
2022-10-11T23:50:13.300Z,101927.44
2022-10-11T23:52:40.619Z,101929.47
2022-10-11T23:55:08.033Z,101933.22
2022-10-11T23:57:35.641Z,101933.00
